createdAt,value
2022-09-04T00:00:14.059Z,7.05
2022-09-04T00:03:18.778Z,7.35
2022-09-04T00:05:52.463Z,7.43
2022-09-04T00:08:34.302Z,7.70
2022-09-04T00:13:38.856Z,7.13
2022-09-04T00:16:10.767Z,6.95
2022-09-04T00:18:48.362Z,7.15
2022-09-04T00:21:33.393Z,7.28
2022-09-04T00:24:25.780Z,7.50
2022-09-04T00:27:03.115Z,7.68
2022-09-04T00:29:37.313Z,7.68
2022-09-04T00:32:29.303Z,7.40
2022-09-04T00:37:51.869Z,7.78
2022-09-04T00:40:42.078Z,7.72
2022-09-04T00:43:39.720Z,6.85
2022-09-04T00:46:57.817Z,7.15
2022-09-04T00:50:01.092Z,7.75
2022-09-04T00:52:59.461Z,7.10
2022-09-04T00:55:47.412Z,7.28
2022-09-04T00:58:36.031Z,7.13
2022-09-04T01:01:03.121Z,7.40
2022-09-04T01:03:41.970Z,7.60
2022-09-04T01:06:29.527Z,7.53
2022-09-04T01:09:01.251Z,7.80
2022-09-04T01:11:34.004Z,8.48
2022-09-04T01:14:29.550Z,8.13
2022-09-04T01:16:56.359Z,8.18
2022-09-04T01:20:01.601Z,8.35
2022-09-04T01:22:47.183Z,6.88
2022-09-04T01:25:50.726Z,6.88
2022-09-04T01:28:49.749Z,6.25
2022-09-04T01:31:49.899Z,5.90
2022-09-04T01:34:22.588Z,7.13
2022-09-04T01:36:56.292Z,7.28
2022-09-04T01:39:26.566Z,8.15
2022-09-04T01:42:12.152Z,8.40
2022-09-04T01:44:38.942Z,8.48
2022-09-04T01:47:16.431Z,8.20
2022-09-04T01:50:01.849Z,8.00
2022-09-04T01:52:36.439Z,7.40
2022-09-04T01:55:17.034Z,8.25
2022-09-04T01:58:16.236Z,7.22
2022-09-04T02:01:06.018Z,8.18
2022-09-04T02:03:51.274Z,7.22
2022-09-04T02:06:29.887Z,7.93
2022-09-04T02:09:19.203Z,7.05
2022-09-04T02:11:57.085Z,7.03
2022-09-04T02:14:57.986Z,8.00
2022-09-04T02:17:55.018Z,7.97
2022-09-04T02:20:25.917Z,8.65
2022-09-04T02:23:20.375Z,9.18
2022-09-04T02:25:59.211Z,7.60
2022-09-04T02:28:33.886Z,7.80
2022-09-04T02:31:05.327Z,8.30
2022-09-04T02:33:43.201Z,8.13
2022-09-04T02:36:30.661Z,8.30
2022-09-04T02:39:22.263Z,8.40
2022-09-04T02:42:03.862Z,9.45
2022-09-04T02:44:37.956Z,9.18
2022-09-04T02:47:28.199Z,9.25
2022-09-04T02:50:11.689Z,9.77
2022-09-04T02:53:04.498Z,9.63
2022-09-04T02:56:19.341Z,10.18
2022-09-04T02:59:07.682Z,10.35
2022-09-04T03:01:57.511Z,10.02
2022-09-04T03:04:31.882Z,9.60
2022-09-04T03:07:14.028Z,9.30
2022-09-04T03:10:03.053Z,9.38
2022-09-04T03:13:04.213Z,9.98
2022-09-04T03:15:57.084Z,9.37
2022-09-04T03:18:31.854Z,10.43
2022-09-04T03:21:17.275Z,8.73
2022-09-04T03:23:56.101Z,9.20
2022-09-04T03:26:24.749Z,9.10
2022-09-04T03:29:15.485Z,8.98
2022-09-04T03:31:45.294Z,9.05
2022-09-04T03:34:23.631Z,8.63
2022-09-04T03:37:05.156Z,8.70
2022-09-04T03:40:01.596Z,9.43
2022-09-04T03:43:00.851Z,9.18
2022-09-04T03:46:00.616Z,9.13
2022-09-04T03:48:39.258Z,9.30
2022-09-04T03:51:14.915Z,9.18
2022-09-04T03:53:46.361Z,10.02
2022-09-04T03:56:25.018Z,9.07
2022-09-04T03:59:03.004Z,9.23
2022-09-04T04:02:12.817Z,9.85
2022-09-04T04:05:16.812Z,9.43
2022-09-04T04:08:08.411Z,8.73
2022-09-04T04:10:52.741Z,9.82
2022-09-04T04:13:38.194Z,9.25
2022-09-04T04:16:12.008Z,9.15
2022-09-04T04:18:54.204Z,9.75
2022-09-04T04:21:55.535Z,9.73
2022-09-04T04:24:40.721Z,9.25
2022-09-04T04:27:26.681Z,9.43
2022-09-04T04:30:05.590Z,8.93
2022-09-04T04:32:32.309Z,9.55
2022-09-04T04:35:13.029Z,9.82
2022-09-04T04:38:04.632Z,9.75
2022-09-04T04:40:41.350Z,10.00
2022-09-04T04:43:47.077Z,9.98
2022-09-04T04:46:51.549Z,9.52
2022-09-04T04:49:32.181Z,9.68
2022-09-04T04:52:24.198Z,9.77
2022-09-04T04:57:53.575Z,9.80
2022-09-04T05:00:48.525Z,9.25
2022-09-04T05:03:53.945Z,9.77
2022-09-04T05:06:44.656Z,9.88
2022-09-04T05:09:20.238Z,10.20
2022-09-04T05:12:14.775Z,9.35
2022-09-04T05:14:57.307Z,9.65
2022-09-04T05:17:34.530Z,9.90
2022-09-04T05:20:33.169Z,9.35
2022-09-04T05:23:20.221Z,9.75
2022-09-04T05:26:11.632Z,10.25
2022-09-04T05:29:00.671Z,10.27
2022-09-04T05:31:30.337Z,9.00
2022-09-04T05:34:21.329Z,9.63
2022-09-04T05:37:23.796Z,9.25
2022-09-04T05:40:11.897Z,8.98
2022-09-04T05:42:45.379Z,9.63
2022-09-04T05:45:21.622Z,9.02
2022-09-04T05:47:57.634Z,8.85
2022-09-04T05:50:36.251Z,8.85
2022-09-04T05:53:36.547Z,7.70
2022-09-04T05:56:24.267Z,7.90
2022-09-04T05:58:56.842Z,7.40
2022-09-04T06:01:52.009Z,6.95
2022-09-04T06:04:40.393Z,7.85
2022-09-04T06:07:18.882Z,6.55
2022-09-04T06:10:03.501Z,6.45
2022-09-04T06:13:07.730Z,6.30
2022-09-04T06:15:53.711Z,6.07
2022-09-04T06:18:31.399Z,6.18
2022-09-04T06:21:08.312Z,5.80
2022-09-04T06:24:04.055Z,6.43
2022-09-04T06:26:52.190Z,6.43
2022-09-04T06:29:46.170Z,5.90
2022-09-04T06:32:40.882Z,6.30
2022-09-04T06:35:37.148Z,6.22
2022-09-04T06:38:19.389Z,5.20
2022-09-04T06:40:49.017Z,5.10
2022-09-04T06:43:30.214Z,4.80
2022-09-04T06:46:28.050Z,4.68
2022-09-04T06:49:35.498Z,5.07
2022-09-04T06:52:08.007Z,5.10
2022-09-04T06:55:02.914Z,3.83
2022-09-04T06:57:48.939Z,3.97
2022-09-04T07:00:18.123Z,3.60
2022-09-04T07:03:09.106Z,3.42
2022-09-04T07:05:54.687Z,3.67
2022-09-04T07:08:42.702Z,3.70
2022-09-04T07:11:32.406Z,3.95
2022-09-04T07:14:33.210Z,3.85
2022-09-04T07:17:20.774Z,3.50
2022-09-04T07:20:17.338Z,3.78
2022-09-04T07:23:05.847Z,3.70
2022-09-04T07:25:42.286Z,3.70
2022-09-04T07:28:09.077Z,4.25
2022-09-04T07:30:48.994Z,3.50
2022-09-04T07:33:20.682Z,3.58
2022-09-04T07:36:08.170Z,3.10
2022-09-04T07:38:50.816Z,3.70
2022-09-04T07:41:42.162Z,3.90
2022-09-04T07:44:24.441Z,3.30
2022-09-04T07:47:14.762Z,4.00
2022-09-04T07:50:08.780Z,4.13
2022-09-04T07:52:35.698Z,3.42
2022-09-04T07:55:17.697Z,3.97
2022-09-04T07:58:07.817Z,3.75
2022-09-04T08:01:00.864Z,3.65
2022-09-04T08:04:05.220Z,4.47
2022-09-04T08:06:48.549Z,3.70
2022-09-04T08:09:45.653Z,4.43
2022-09-04T08:12:25.715Z,4.38
2022-09-04T08:14:59.838Z,4.50
2022-09-04T08:17:41.384Z,4.70
2022-09-04T08:23:24.563Z,4.75
2022-09-04T08:26:09.000Z,4.13
2022-09-04T08:28:46.735Z,4.10
2022-09-04T08:31:20.470Z,4.82
2022-09-04T08:33:51.257Z,4.18
2022-09-04T08:36:27.790Z,5.28
2022-09-04T08:38:56.446Z,4.93
2022-09-04T08:41:41.829Z,6.20
2022-09-04T08:44:41.649Z,4.05
2022-09-04T08:47:30.139Z,4.20
2022-09-04T08:50:02.544Z,4.25
2022-09-04T08:53:11.806Z,4.47
2022-09-04T08:56:06.299Z,4.38
2022-09-04T08:58:51.193Z,5.40
2022-09-04T09:01:49.115Z,3.75
2022-09-04T09:04:37.072Z,4.20
2022-09-04T09:07:58.459Z,4.13
2022-09-04T09:10:38.917Z,4.10
2022-09-04T09:13:31.891Z,5.45
2022-09-04T09:16:17.283Z,4.30
2022-09-04T09:19:11.995Z,4.70
2022-09-04T09:22:04.386Z,4.05
2022-09-04T09:25:06.167Z,4.18
2022-09-04T09:28:02.941Z,5.25
2022-09-04T09:30:51.164Z,4.38
2022-09-04T09:33:46.886Z,4.30
2022-09-04T09:36:37.455Z,4.90
2022-09-04T09:39:36.417Z,5.40
2022-09-04T09:42:21.684Z,6.80
2022-09-04T09:45:23.276Z,6.00
2022-09-04T09:51:06.643Z,5.50
2022-09-04T09:53:57.381Z,5.35
2022-09-04T09:56:43.029Z,6.32
2022-09-04T09:59:23.103Z,4.88
2022-09-04T10:02:12.804Z,6.30
2022-09-04T10:05:13.902Z,5.95
2022-09-04T10:07:59.392Z,5.55
2022-09-04T10:10:42.249Z,5.75
2022-09-04T10:13:31.023Z,5.30
2022-09-04T10:16:24.622Z,5.57
2022-09-04T10:19:28.892Z,5.43
2022-09-04T10:22:20.595Z,5.82
2022-09-04T10:25:09.720Z,5.35
2022-09-04T10:27:39.492Z,5.00
2022-09-04T10:30:18.191Z,4.63
2022-09-04T10:33:16.571Z,5.28
2022-09-04T10:36:20.738Z,6.82
2022-09-04T10:39:45.319Z,7.68
2022-09-04T10:42:30.354Z,7.10
2022-09-04T10:45:17.249Z,7.75
2022-09-04T10:48:08.745Z,5.93
2022-09-04T10:50:56.743Z,6.63
2022-09-04T10:53:36.754Z,7.40
2022-09-04T10:56:16.454Z,7.78
2022-09-04T10:59:09.814Z,6.25
2022-09-04T11:01:39.529Z,6.75
2022-09-04T11:04:39.475Z,5.90
2022-09-04T11:07:29.860Z,5.97
2022-09-04T11:10:19.206Z,5.55
2022-09-04T11:13:03.979Z,6.55
2022-09-04T11:15:53.897Z,5.82
2022-09-04T11:18:29.341Z,7.15
2022-09-04T11:21:05.824Z,9.45
2022-09-04T11:24:01.804Z,7.47
2022-09-04T11:26:54.870Z,6.50
2022-09-04T11:29:24.352Z,8.10
2022-09-04T11:35:14.109Z,5.88
2022-09-04T11:38:01.767Z,5.65
2022-09-04T11:40:55.283Z,5.53
2022-09-04T11:43:56.569Z,5.18
2022-09-04T11:46:42.286Z,4.55
2022-09-04T11:49:27.022Z,4.43
2022-09-04T11:52:05.712Z,5.10
2022-09-04T11:54:50.677Z,4.78
2022-09-04T11:57:55.076Z,5.10
2022-09-04T12:00:21.897Z,5.63
2022-09-04T12:03:13.636Z,4.57
2022-09-04T12:06:05.090Z,4.57
2022-09-04T12:08:46.535Z,4.25
2022-09-04T12:11:56.055Z,4.90
2022-09-04T12:14:34.774Z,4.25
2022-09-04T12:17:36.325Z,4.85
2022-09-04T12:20:42.610Z,5.22
2022-09-04T12:23:27.800Z,4.55
2022-09-04T12:26:31.926Z,5.00
2022-09-04T12:29:46.930Z,5.70
2022-09-04T12:32:28.632Z,5.72
2022-09-04T12:35:31.585Z,5.35
2022-09-04T12:38:33.701Z,5.88
2022-09-04T12:41:16.576Z,5.40
2022-09-04T12:44:14.495Z,5.50
2022-09-04T12:47:16.486Z,5.47
2022-09-04T12:50:15.991Z,5.07
2022-09-04T12:53:25.890Z,5.20
2022-09-04T12:56:19.090Z,4.88
2022-09-04T12:58:46.153Z,5.40
2022-09-04T13:01:52.214Z,5.07
2022-09-04T13:04:33.187Z,6.10
2022-09-04T13:07:15.658Z,5.50
2022-09-04T13:09:55.687Z,4.88
2022-09-04T13:12:37.800Z,5.18
2022-09-04T13:15:45.929Z,5.07
2022-09-04T13:18:34.817Z,5.32
2022-09-04T13:21:19.237Z,5.28
2022-09-04T13:24:35.837Z,5.20
2022-09-04T13:27:15.959Z,4.32
2022-09-04T13:29:45.879Z,5.00
2022-09-04T13:32:25.476Z,4.40
2022-09-04T13:34:56.321Z,4.90
2022-09-04T13:37:52.873Z,4.05
2022-09-04T13:41:04.918Z,4.60
2022-09-04T13:43:45.413Z,4.20
2022-09-04T13:46:17.615Z,4.68
2022-09-04T13:49:17.205Z,4.43
2022-09-04T13:51:54.472Z,4.35
2022-09-04T13:54:39.666Z,4.85
2022-09-04T13:57:12.294Z,4.60
2022-09-04T13:59:40.635Z,4.82
2022-09-04T14:02:12.513Z,4.22
2022-09-04T14:04:44.955Z,4.70
2022-09-04T14:07:24.616Z,4.07
2022-09-04T14:09:54.688Z,4.28
2022-09-04T14:12:53.864Z,4.40
2022-09-04T14:15:42.464Z,4.30
2022-09-04T14:18:18.034Z,3.72
2022-09-04T14:20:57.909Z,4.25
2022-09-04T14:23:53.685Z,3.85
2022-09-04T14:27:03.610Z,3.83
2022-09-04T14:29:47.147Z,3.78
2022-09-04T14:32:19.544Z,4.00
2022-09-04T14:35:02.281Z,3.53
2022-09-04T14:38:04.445Z,3.20
2022-09-04T14:40:49.591Z,2.85
2022-09-04T14:43:47.208Z,3.10
2022-09-04T14:46:39.020Z,3.45
2022-09-04T14:49:10.463Z,2.78
2022-09-04T14:51:45.953Z,3.15
2022-09-04T14:54:19.180Z,2.35
2022-09-04T14:56:48.493Z,2.50
2022-09-04T14:59:34.209Z,3.00
2022-09-04T15:02:10.500Z,2.45
2022-09-04T15:04:58.496Z,2.28
2022-09-04T15:07:42.059Z,2.05
2022-09-04T15:10:25.923Z,2.40
2022-09-04T15:13:35.506Z,2.40
2022-09-04T15:16:18.170Z,2.72
2022-09-04T15:19:05.792Z,2.85
2022-09-04T15:21:56.132Z,2.70
2022-09-04T15:24:43.707Z,2.20
2022-09-04T15:27:19.987Z,2.10
2022-09-04T15:29:49.583Z,2.05
2022-09-04T15:32:22.249Z,2.00
2022-09-04T15:34:50.301Z,2.10
2022-09-04T15:37:25.067Z,2.20
2022-09-04T15:40:03.943Z,2.40
2022-09-04T15:42:34.238Z,2.35
2022-09-04T15:45:10.195Z,2.30
2022-09-04T15:48:02.479Z,2.08
2022-09-04T15:50:35.275Z,2.30
2022-09-04T15:53:26.944Z,2.40
2022-09-04T15:56:34.883Z,2.03
2022-09-04T15:59:16.021Z,2.55
2022-09-04T16:05:03.282Z,2.00
2022-09-04T16:07:40.733Z,1.88
2022-09-04T16:10:20.337Z,2.30
2022-09-04T16:12:51.835Z,2.20
2022-09-04T16:15:24.860Z,2.08
2022-09-04T16:17:54.638Z,2.20
2022-09-04T16:20:51.447Z,2.20
2022-09-04T16:23:28.661Z,2.15
2022-09-04T16:25:58.237Z,2.58
2022-09-04T16:28:34.689Z,2.90
2022-09-04T16:31:02.556Z,2.50
2022-09-04T16:33:33.903Z,2.80
2022-09-04T16:36:11.496Z,2.60
2022-09-04T16:38:48.706Z,2.58
2022-09-04T16:41:37.679Z,2.72
2022-09-04T16:44:13.966Z,3.88
2022-09-04T16:47:23.625Z,3.75
2022-09-04T16:50:13.432Z,3.28
2022-09-04T16:53:13.889Z,3.25
2022-09-04T16:55:57.148Z,2.80
2022-09-04T16:58:46.131Z,2.92
2022-09-04T17:01:41.065Z,2.70
2022-09-04T17:04:40.265Z,2.30
2022-09-04T17:07:07.832Z,2.55
2022-09-04T17:09:48.065Z,2.63
2022-09-04T17:12:38.289Z,2.60
2022-09-04T17:15:33.894Z,2.60
2022-09-04T17:18:08.007Z,2.65
2022-09-04T17:25:10.619Z,3.03
2022-09-04T17:28:53.977Z,2.88
2022-09-04T17:29:17.147Z,3.28
2022-09-04T17:29:58.682Z,2.97
2022-09-04T17:36:16.362Z,2.83
2022-09-04T17:40:35.769Z,2.85
2022-09-04T17:40:54.445Z,3.22
2022-09-04T17:41:55.818Z,3.13
2022-09-04T17:44:34.203Z,3.67
2022-09-04T17:47:12.513Z,3.00
2022-09-04T17:49:47.123Z,3.40
2022-09-04T17:52:30.085Z,3.58
2022-09-04T17:55:03.195Z,3.13
2022-09-04T17:57:46.391Z,3.63
2022-09-04T18:00:26.059Z,3.90
2022-09-04T18:03:05.408Z,3.63
2022-09-04T18:05:51.509Z,3.67
2022-09-04T18:08:27.089Z,3.65
2022-09-04T18:11:20.846Z,3.63
2022-09-04T18:14:01.934Z,3.70
2022-09-04T18:16:47.703Z,3.33
2022-09-04T18:19:30.864Z,4.15
2022-09-04T18:22:25.422Z,3.28
2022-09-04T18:25:24.322Z,4.47
2022-09-04T18:28:06.387Z,3.55
2022-09-04T18:37:06.944Z,3.90
2022-09-04T18:37:25.488Z,4.30
2022-09-04T18:37:46.204Z,4.40
2022-09-04T18:40:20.465Z,4.15
2022-09-04T18:50:20.465Z,4.30
2022-09-04T18:50:28.622Z,4.30
2022-09-04T18:50:38.072Z,3.97
2022-09-04T18:51:59.156Z,4.68
2022-09-04T18:54:41.590Z,4.30
2022-09-04T18:57:56.458Z,4.30
2022-09-04T19:00:34.090Z,4.20
2022-09-04T19:03:18.740Z,3.80
2022-09-04T19:05:47.475Z,4.05
2022-09-04T19:08:21.783Z,4.10
2022-09-04T19:10:56.474Z,4.18
2022-09-04T19:13:36.568Z,4.07
2022-09-04T19:16:08.755Z,4.10
2022-09-04T19:18:47.189Z,4.25
2022-09-04T19:21:19.749Z,4.95
2022-09-04T19:24:22.577Z,4.50
2022-09-04T19:26:55.660Z,4.20
2022-09-04T19:29:43.349Z,4.38
2022-09-04T19:32:32.112Z,4.03
2022-09-04T19:35:08.176Z,4.10
2022-09-04T19:40:46.006Z,4.70
2022-09-04T19:46:04.808Z,4.65
2022-09-04T19:46:12.081Z,4.32
2022-09-04T19:46:47.994Z,4.30
2022-09-04T19:51:19.449Z,4.68
2022-09-04T19:53:30.584Z,4.47
2022-09-04T19:55:25.190Z,4.70
2022-09-04T19:58:09.105Z,4.43
2022-09-04T20:00:47.643Z,4.60
2022-09-04T20:03:30.351Z,4.82
2022-09-04T20:06:09.309Z,4.97
2022-09-04T20:09:11.250Z,4.87
2022-09-04T20:11:47.684Z,4.90
2022-09-04T20:14:26.710Z,4.90
2022-09-04T20:17:09.432Z,5.30
2022-09-04T20:19:52.213Z,4.78
2022-09-04T20:22:36.295Z,4.90
2022-09-04T20:25:09.177Z,5.45
2022-09-04T20:27:50.993Z,4.95
2022-09-04T20:30:24.601Z,5.70
2022-09-04T20:33:11.507Z,5.10
2022-09-04T20:35:47.492Z,5.45
2022-09-04T20:38:30.361Z,5.28
2022-09-04T20:41:03.540Z,6.00
2022-09-04T20:43:55.971Z,5.95
2022-09-04T20:52:46.018Z,5.18
2022-09-04T20:52:49.129Z,5.68
2022-09-04T20:53:09.485Z,5.45
2022-09-04T20:56:10.783Z,5.95
2022-09-04T21:03:05.229Z,5.80
2022-09-04T21:03:24.386Z,5.72
2022-09-04T21:05:49.692Z,5.25
2022-09-04T21:08:56.337Z,5.47
2022-09-04T21:11:41.238Z,5.40
2022-09-04T21:14:30.042Z,5.55
2022-09-04T21:17:34.579Z,5.13
2022-09-04T21:20:30.043Z,5.70
2022-09-04T21:26:49.435Z,4.75
2022-09-04T21:29:45.172Z,5.47
2022-09-04T21:32:36.882Z,5.50
2022-09-04T21:35:07.294Z,5.35
2022-09-04T21:37:46.935Z,5.63
2022-09-04T21:40:50.440Z,5.03
2022-09-04T21:43:45.349Z,5.40
2022-09-04T21:46:36.956Z,4.50
2022-09-04T21:49:26.693Z,4.82
2022-09-04T21:52:12.506Z,4.95
2022-09-04T21:56:18.085Z,4.40
2022-09-04T22:02:41.700Z,4.68
2022-09-04T22:02:47.887Z,4.40
2022-09-04T22:03:57.586Z,4.50
2022-09-04T22:09:02.165Z,4.75
2022-09-04T22:13:33.435Z,4.60
2022-09-04T22:13:42.965Z,4.70
2022-09-04T22:16:04.616Z,5.10
2022-09-04T22:19:00.954Z,4.55
2022-09-04T22:22:03.701Z,4.55
2022-09-04T22:25:04.319Z,3.95
2022-09-04T22:28:07.832Z,3.22
2022-09-04T22:30:47.446Z,3.97
2022-09-04T22:34:16.123Z,3.70
2022-09-04T22:36:43.080Z,3.75
2022-09-04T22:39:46.205Z,4.10
2022-09-04T22:42:20.339Z,3.90
2022-09-04T22:44:56.164Z,3.58
2022-09-04T22:48:05.273Z,4.20
2022-09-04T22:51:06.036Z,4.20
2022-09-04T22:53:51.122Z,3.72
2022-09-04T22:56:54.873Z,4.40
2022-09-04T22:59:27.033Z,5.10
2022-09-04T23:02:13.314Z,4.38
2022-09-04T23:05:00.458Z,4.50
2022-09-04T23:12:57.276Z,4.50
2022-09-04T23:14:02.711Z,4.07
2022-09-04T23:14:18.123Z,5.30
2022-09-04T23:16:57.659Z,5.28
2022-09-04T23:26:30.909Z,4.75
2022-09-04T23:26:35.820Z,5.53
2022-09-04T23:26:47.353Z,5.68
2022-09-04T23:29:32.736Z,5.30
2022-09-04T23:32:32.854Z,6.13
2022-09-04T23:35:14.775Z,6.28
2022-09-04T23:38:20.212Z,6.22
2022-09-04T23:40:53.527Z,6.25
2022-09-04T23:43:20.512Z,6.03
2022-09-04T23:46:09.007Z,6.80
2022-09-04T23:48:56.972Z,5.85
2022-09-04T23:51:53.508Z,6.38
2022-09-04T23:54:53.466Z,6.22
2022-09-04T23:57:49.548Z,5.82
